Alsace — PB4786 — position and weather

sailwx.info

Track history (hours):
 
Tides and Currents Weather Stations Pressure Air Temp Water Temp Dewpoint Dewpoint Depression Visibility Wind Speed Wind Dir Waves Ship Positions

Alsace

Last reported at 2017-May-27 06:00 UTC. Time now 2017-May-27 06:19 UTC.
Position N 51°55' E 004°10'.

Length 178 m; draft 1.8 m.

Type: Ship. MMSI: 244660556.

Date/timePositionNaut miles runAvg speedWind from/ knotsBaromVisibWave heightAir tempDewpointWater temp
2017-May-27 06:00N 51°55' E 004°10'3 6.6
2017-May-27 05:30N 51°56' E 004°05'2 3.9
2017-May-27 05:00N 51°57' E 004°02'0 0.2
2017-May-27 04:30N 51°57' E 004°02'0 0.0
2017-May-27 04:00N 51°57' E 004°02'0 0.0
2017-May-27 03:30N 51°57' E 004°02'0 0.0
2017-May-27 03:00N 51°57' E 004°02'0 0.0
2017-May-27 02:30N 51°57' E 004°02'0 0.3
2017-May-27 02:00N 51°57' E 004°02'0 0.0
2017-May-27 01:30N 51°57' E 004°02'0 0.0
2017-May-27 01:00N 51°57' E 004°02'0 0.0
2017-May-27 00:30N 51°57' E 004°02'0 0.0
2017-May-27 00:00N 51°57' E 004°02'0 0.0
2017-May-26 23:30N 51°57' E 004°02'0 0.0
2017-May-26 23:00N 51°57' E 004°02'0 0.0
2017-May-26 22:30N 51°57' E 004°02'0 0.0
2017-May-26 22:00N 51°57' E 004°02'0 0.1
2017-May-26 21:30N 51°57' E 004°02'0 0.0
2017-May-26 21:00N 51°57' E 004°02'1 1.8
2017-May-26 20:30N 51°56' E 004°03'2 4.3
2017-May-26 20:00N 51°58' E 004°02'1 2.5
2017-May-26 19:30N 51°57' E 004°01'0 0.3
2017-May-26 19:00N 51°57' E 004°01'0 0.0
2017-May-26 18:30N 51°57' E 004°01'0 0.0
2017-May-26 18:00N 51°57' E 004°01'0 0.0
2017-May-26 17:30N 51°57' E 004°01'1 1.2
2017-May-26 17:00N 51°58' E 004°00'3 6.2
2017-May-26 16:31N 51°58' E 004°05'3 6.3
2017-May-26 16:01N 51°57' E 004°10'4 8.5
2017-May-26 15:31N 51°55' E 004°15'4 7.6
2017-May-26 15:01N 51°54' E 004°21'2 2.2
2017-May-26 14:01N 51°53' E 004°25'0 0.0
2017-May-26 13:31N 51°53' E 004°25'0 0.0
2017-May-26 13:01N 51°53' E 004°25'0 0.3
2017-May-26 12:31N 51°53' E 004°25'0 0.1
2017-May-26 12:01N 51°53' E 004°25'2 4.0
2017-May-26 11:30N 51°54' E 004°22'2 4.3
2017-May-26 11:00N 51°53' E 004°19'0 0.0
2017-May-26 10:30N 51°53' E 004°19'0 0.6
2017-May-26 10:00N 51°54' E 004°19'1 1.5
2017-May-26 09:31N 51°53' E 004°19'1 1.7
2017-May-26 09:00N 51°54' E 004°20'2 4.1
2017-May-26 08:31N 51°54' E 004°23'2 3.8
2017-May-26 08:01N 51°54' E 004°26'0 0.1
2017-May-26 07:30N 51°54' E 004°26'1 1.9
2017-May-26 07:01N 51°54' E 004°25'1 1.1
2017-May-26 06:31N 51°53' E 004°25'1 1.5
2017-May-26 06:01N 51°53' E 004°26'0 0.3
2017-May-26 05:31N 51°53' E 004°25'0 0.0
2017-May-26 05:00N 51°53' E 004°25'0 0.0
2017-May-26 04:30N 51°53' E 004°25'0 0.0
2017-May-26 04:00N 51°53' E 004°25'0 0.2
2017-May-26 03:30N 51°53' E 004°25'0 0.0
2017-May-26 03:00N 51°53' E 004°25'0 0.0
2017-May-26 02:30N 51°53' E 004°25'0 0.0
2017-May-26 02:00N 51°53' E 004°25'0 0.0
2017-May-26 01:30N 51°53' E 004°25'0 0.0
2017-May-26 01:00N 51°53' E 004°25'0 0.0
2017-May-26 00:30N 51°53' E 004°25'0 0.0
2017-May-26 00:00N 51°53' E 004°25'0 0.0
2017-May-25 23:30N 51°53' E 004°25'0 0.0
2017-May-25 23:00N 51°53' E 004°25'0 0.0
2017-May-25 22:30N 51°53' E 004°25'0 0.3
2017-May-25 22:00N 51°53' E 004°25'1 1.2
2017-May-25 21:31N 51°53' E 004°24'2 3.4
2017-May-25 21:00N 51°54' E 004°26'3 6.4
2017-May-25 20:30N 51°54' E 004°31'5 9.4
2017-May-25 20:00N 51°52' E 004°38'4 8.1
2017-May-25 19:31N 51°48' E 004°39'5 9.4
2017-May-25 19:00N 51°44' E 004°38'26 4.2
2017-May-25 12:51N 51°21' E 004°17'0 0.7
2017-May-25 12:22N 51°21' E 004°17'2 4.0
2017-May-25 11:49N 51°19' E 004°16'0 1.4
2017-May-25 11:29N 51°18' E 004°16'0 0.0
2017-May-25 10:34N 51°18' E 004°16'0 0.0
2017-May-25 09:56N 51°18' E 004°16'0 0.0
2017-May-25 09:29N 51°18' E 004°16'0 0.0
2017-May-25 08:58N 51°18' E 004°16'0 0.0
2017-May-25 08:26N 51°18' E 004°16'0 0.1
2017-May-25 07:58N 51°18' E 004°16'2 3.0
2017-May-25 07:21N 51°20' E 004°17'0 0.3
2017-May-25 06:42N 51°20' E 004°16'0 0.4
2017-May-25 06:30N 51°20' E 004°17'1 1.5
2017-May-25 05:53N 51°21' E 004°16'0 0.0
2017-May-25 05:29N 51°21' E 004°16'0 0.0
2017-May-25 04:56N 51°21' E 004°16'0 0.0
2017-May-25 04:30N 51°21' E 004°16'0 0.0
2017-May-25 03:53N 51°21' E 004°16'1 2.0
2017-May-25 03:23N 51°20' E 004°16'3 7.5
2017-May-25 03:00N 51°17' E 004°16'0 0.0
2017-May-25 02:28N 51°17' E 004°16'0 0.0
2017-May-25 02:00N 51°17' E 004°16'0 0.0
2017-May-25 01:31N 51°17' E 004°16'0 0.1
2017-May-25 01:01N 51°17' E 004°16'1 1.2
2017-May-25 00:30N 51°18' E 004°16'0 0.0
2017-May-24 23:58N 51°18' E 004°16'0 0.0
2017-May-24 23:30N 51°18' E 004°16'0 0.0
2017-May-24 22:59N 51°18' E 004°16'0 0.0
2017-May-24 22:24N 51°18' E 004°16'0 0.0
2017-May-24 21:15N 51°18' E 004°16'1 2.5
2017-May-24 21:00N 51°17' E 004°16'1 1.1
2017-May-24 20:30N 51°17' E 004°15'1 2.4
2017-May-24 20:00N 51°18' E 004°16'3 5.6
2017-May-24 19:29N 51°21' E 004°17'0 0.0
2017-May-24 19:00N 51°21' E 004°17'0 0.0
2017-May-24 18:30N 51°21' E 004°17'0 0.0
2017-May-24 18:00N 51°21' E 004°17'0 0.1
2017-May-24 17:30N 51°21' E 004°17'3 5.9
2017-May-24 17:00N 51°18' E 004°17'0 0.4
2017-May-24 16:30N 51°18' E 004°18'0 0.0
2017-May-24 16:00N 51°18' E 004°18'0 0.0
2017-May-24 15:30N 51°18' E 004°18'2 3.7
2017-May-24 15:00N 51°17' E 004°20'0 0.5
2017-May-24 14:30N 51°16' E 004°20'0 0.0
2017-May-24 13:30N 51°16' E 004°20'1 2.3
2017-May-24 13:00N 51°17' E 004°22'0 0.2
2017-May-24 12:30N 51°17' E 004°22'2 1.2
2017-May-24 11:12N 51°18' E 004°20'1 3.6
2017-May-24 11:00N 51°17' E 004°20'1 2.4
2017-May-24 10:30N 51°16' E 004°21'0 0.1
2017-May-24 10:00N 51°16' E 004°21'0 0.0
2017-May-24 09:30N 51°16' E 004°21'1 1.3
2017-May-24 09:00N 51°16' E 004°22'2 3.1
2017-May-24 08:30N 51°16' E 004°24'0 0.2
2017-May-24 08:00N 51°16' E 004°24'1 2.4
2017-May-24 07:30N 51°16' E 004°22'2 2.4
2017-May-24 06:48N 51°17' E 004°20'0 0.9
2017-May-24 06:30N 51°17' E 004°20'1 2.6
2017-May-24 06:00N 51°18' E 004°18'2 1.1
2017-May-24 04:33N 51°19' E 004°17'0 0.0
2017-May-24 04:27N 51°19' E 004°17'0 0.0
2017-May-24 00:04N 51°19' E 004°17'0 0.0
2017-May-23 23:48N 51°19' E 004°17'0 0.0
2017-May-23 23:06N 51°19' E 004°17'0 0.0
2017-May-23 22:57N 51°19' E 004°17'2 4.6
2017-May-23 22:30N 51°21' E 004°16'1 1.7
2017-May-23 21:57N 51°20' E 004°17'3 7.0
2017-May-23 21:30N 51°17' E 004°15'0 0.2
2017-May-23 20:52N 51°17' E 004°15'0 0.2
2017-May-23 20:25N 51°17' E 004°15'0 0.2
2017-May-23 19:54N 51°17' E 004°15'2 4.6
2017-May-23 19:30N 51°19' E 004°17'1 2.5
2017-May-23 18:55N 51°20' E 004°16'1 1.6
2017-May-23 18:30N 51°21' E 004°17'0 0.0
2017-May-23 18:00N 51°21' E 004°17'1 2.5
2017-May-23 17:30N 51°20' E 004°17'1 1.7
2017-May-23 17:00N 51°19' E 004°17'0 0.0
2017-May-23 16:30N 51°19' E 004°17'0 0.0
2017-May-23 16:00N 51°19' E 004°17'0 0.0
2017-May-23 15:30N 51°19' E 004°17'0 0.0
2017-May-23 15:00N 51°19' E 004°17'0 0.0
2017-May-23 14:00N 51°19' E 004°17'1 1.6
2017-May-23 13:26N 51°20' E 004°16'1 0.9
2017-May-23 12:39N 51°20' E 004°16'0 1.0
2017-May-23 12:23N 51°21' E 004°16'22 4.0
2017-May-23 07:03N 51°42' E 004°25'7 6.9
2017-May-23 06:03N 51°43' E 004°36'0 7.4
2017-May-23 06:00N 51°43' E 004°36'4 7.0
2017-May-23 05:30N 51°46' E 004°38'3 6.1
2017-May-23 05:00N 51°48' E 004°35'3 6.3
2017-May-23 04:30N 51°50' E 004°30'4 7.4
2017-May-23 04:00N 51°51' E 004°24'3 6.8
2017-May-23 03:30N 51°52' E 004°19'3 6.2
2017-May-23 03:00N 51°53' E 004°14'3 6.5
2017-May-23 02:30N 51°55' E 004°11'3 6.9
2017-May-23 02:00N 51°56' E 004°06'2 3.7
2017-May-23 01:30N 51°56' E 004°03'0 0.0
2017-May-23 01:00N 51°56' E 004°03'0 0.0
2017-May-23 00:30N 51°56' E 004°03'0 0.0
2017-May-23 00:00N 51°56' E 004°03'0 0.0
2017-May-22 23:30N 51°56' E 004°03'0 0.0
2017-May-22 23:00N 51°56' E 004°03'0 0.0
2017-May-22 22:30N 51°56' E 004°03'1 1.8
2017-May-22 22:00N 51°57' E 004°02'0 0.0
2017-May-22 21:30N 51°57' E 004°02'0 0.0
2017-May-22 21:00N 51°57' E 004°02'0 0.5
2017-May-22 20:30N 51°56' E 004°02'0 0.0
2017-May-22 20:00N 51°56' E 004°02'0 0.0
2017-May-22 19:30N 51°56' E 004°02'0 0.0
2017-May-22 19:00N 51°56' E 004°02'0 0.0
2017-May-22 18:31N 51°56' E 004°02'0 0.0
2017-May-22 18:00N 51°56' E 004°02'0 0.0
2017-May-22 17:30N 51°56' E 004°02'0 0.0
2017-May-22 17:00N 51°56' E 004°02'2 3.7
2017-May-22 16:30N 51°57' E 004°05'2 3.6
2017-May-22 16:00N 51°58' E 004°03'0 0.0
2017-May-22 15:30N 51°58' E 004°03'1 1.7
2017-May-22 15:00N 51°58' E 004°03'0 0.2
2017-May-22 14:00N 51°58' E 004°03'1 1.6
2017-May-22 13:30N 51°57' E 004°04'1 1.7
2017-May-22 13:00N 51°57' E 004°02'0 0.0
2017-May-22 12:30N 51°57' E 004°02'0 0.1
2017-May-22 12:00N 51°57' E 004°03'3 5.8
2017-May-22 11:30N 51°56' E 004°07'3 6.9
2017-May-22 11:00N 51°54' E 004°12'2 4.3
2017-May-22 10:30N 51°53' E 004°14'0 0.0
2017-May-22 10:00N 51°53' E 004°14'0 0.2
2017-May-22 09:30N 51°53' E 004°14'1 2.1
2017-May-22 09:00N 51°52' E 004°15'3 5.3
2017-May-22 08:30N 51°53' E 004°19'3 5.9
2017-May-22 08:00N 51°53' E 004°24'0 0.8
2017-May-22 07:30N 51°53' E 004°24'1 2.1
2017-May-22 07:00N 51°54' E 004°25'1 1.8
2017-May-22 06:30N 51°53' E 004°26'0 0.0
2017-May-22 06:00N 51°53' E 004°26'0 0.2
2017-May-22 05:30N 51°53' E 004°26'1 1.0
2017-May-22 05:00N 51°54' E 004°26'3 6.6
2017-May-22 04:30N 51°54' E 004°31'5 9.2
2017-May-22 04:00N 51°52' E 004°38'4 8.1
2017-May-22 03:31N 51°49' E 004°43'5 9.8
2017-May-22 03:00N 51°49' E 004°51'5 9.9
2017-May-22 02:30N 51°49' E 004°59'7 9.9
2017-May-22 01:48N 51°49' E 005°10'310.1
2017-May-22 01:29N 51°49' E 005°16'4 8.8
2017-May-22 01:00N 51°49' E 005°22'5 9.8
2017-May-22 00:29N 51°53' E 005°26'5 9.8
2017-May-22 00:00N 51°54' E 005°34'510.0
2017-May-21 23:31N 51°54' E 005°42'5 9.9
2017-May-21 23:01N 51°52' E 005°49'4 8.0
2017-May-21 22:31N 51°52' E 005°56'3 6.8
2017-May-21 22:01N 51°53' E 006°01'5 9.8
2017-May-21 21:31N 51°51' E 006°09'510.1
2017-May-21 21:01N 51°49' E 006°16'5 9.7
2017-May-21 20:31N 51°45' E 006°21'4 7.1
2017-May-21 19:58N 51°43' E 006°26'5 9.1
2017-May-21 19:28N 51°40' E 006°32'3 6.8
2017-May-21 19:00N 51°37' E 006°35'4 7.3
2017-May-21 18:29N 51°35' E 006°39'4 8.1
2017-May-21 18:00N 51°31' E 006°42'3 6.4
2017-May-21 17:31N 51°28' E 006°43'5 9.0
2017-May-21 17:00N 51°24' E 006°45'9 6.5
2017-May-21 15:35N 51°15' E 006°46'110.3
2017-May-21 15:30N 51°14' E 006°46'3 6.2
2017-May-21 15:01N 51°11' E 006°44'17 6.9
2017-May-21 12:35N 50°58' E 006°60'1 9.8
2017-May-21 12:28N 50°57' E 006°58'13 7.2
2017-May-21 10:41N 50°45' E 007°06'104 6.7
2017-May-20 19:18N 49°14' E 008°23'101 3.6
2017-May-19 14:57N 47°39' E 007°32'0 0.4
2017-May-19 14:00N 47°39' E 007°32'0 0.3
2017-May-19 13:30N 47°39' E 007°32'4 1.3
2017-May-19 10:13N 47°35' E 007°35'0 0.0
2017-May-19 09:57N 47°35' E 007°35'0 0.0
2017-May-19 09:25N 47°35' E 007°35'0 0.0
2017-May-19 08:57N 47°35' E 007°35'0 0.0
2017-May-19 08:11N 47°35' E 007°35'0 0.0
2017-May-19 07:59N 47°35' E 007°35'2 0.1
2017-May-18 17:36N 47°34' E 007°37'0 1.1
2017-May-18 17:23N 47°34' E 007°38'0 0.4
2017-May-18 17:00N 47°34' E 007°38'0 0.0
2017-May-18 16:30N 47°34' E 007°38'0 0.0
2017-May-18 16:00N 47°34' E 007°38'0 0.0
2017-May-18 15:30N 47°34' E 007°38'0 0.0
2017-May-18 15:00N 47°34' E 007°38'1 1.3
2017-May-18 14:30N 47°33' E 007°39'1 1.0
2017-May-18 13:30N 47°32' E 007°40'0 0.0
2017-May-18 13:00N 47°32' E 007°40'0 0.0
2017-May-18 12:30N 47°32' E 007°40'0 0.0
2017-May-18 12:00N 47°32' E 007°40'0 0.2
2017-May-18 11:30N 47°33' E 007°40'0 0.0
2017-May-18 11:00N 47°33' E 007°40'0 0.3
2017-May-18 10:30N 47°33' E 007°40'1 1.6
2017-May-18 10:00N 47°33' E 007°39'1 1.3
2017-May-18 09:30N 47°34' E 007°38'2 1.5
2017-May-18 07:50N 47°35' E 007°35'1 0.1
2017-May-17 20:40N 47°36' E 007°35'0 0.0
2017-May-17 20:30N 47°36' E 007°35'0 0.0
2017-May-17 19:30N 47°36' E 007°35'  
Track history (hours):
 
Tides and Currents Weather Stations Pressure Air Temp Water Temp Dewpoint Dewpoint Depression Visibility Wind Speed Wind Dir Waves Ship Positions

Alsace

Last reported at 2017-May-27 06:00 UTC. Time now 2017-May-27 06:19 UTC.
Position N 51°55' E 004°10'.

Length 178 m; draft 1.8 m.

Type: Ship. MMSI: 244660556.

Date/timePositionNaut miles runAvg speedWind from/ knotsBaromVisibWave heightAir tempDewpointWater temp
2017-May-27 06:00N 51°55' E 004°10'3 6.6
2017-May-27 05:30N 51°56' E 004°05'2 3.9
2017-May-27 05:00N 51°57' E 004°02'0 0.2
2017-May-27 04:30N 51°57' E 004°02'0 0.0
2017-May-27 04:00N 51°57' E 004°02'0 0.0
2017-May-27 03:30N 51°57' E 004°02'0 0.0
2017-May-27 03:00N 51°57' E 004°02'0 0.0
2017-May-27 02:30N 51°57' E 004°02'0 0.3
2017-May-27 02:00N 51°57' E 004°02'0 0.0
2017-May-27 01:30N 51°57' E 004°02'0 0.0
2017-May-27 01:00N 51°57' E 004°02'0 0.0
2017-May-27 00:30N 51°57' E 004°02'0 0.0
2017-May-27 00:00N 51°57' E 004°02'0 0.0
2017-May-26 23:30N 51°57' E 004°02'0 0.0
2017-May-26 23:00N 51°57' E 004°02'0 0.0
2017-May-26 22:30N 51°57' E 004°02'0 0.0
2017-May-26 22:00N 51°57' E 004°02'0 0.1
2017-May-26 21:30N 51°57' E 004°02'0 0.0
2017-May-26 21:00N 51°57' E 004°02'1 1.8
2017-May-26 20:30N 51°56' E 004°03'2 4.3
2017-May-26 20:00N 51°58' E 004°02'1 2.5
2017-May-26 19:30N 51°57' E 004°01'0 0.3
2017-May-26 19:00N 51°57' E 004°01'0 0.0
2017-May-26 18:30N 51°57' E 004°01'0 0.0
2017-May-26 18:00N 51°57' E 004°01'0 0.0
2017-May-26 17:30N 51°57' E 004°01'1 1.2
2017-May-26 17:00N 51°58' E 004°00'3 6.2
2017-May-26 16:31N 51°58' E 004°05'3 6.3
2017-May-26 16:01N 51°57' E 004°10'4 8.5
2017-May-26 15:31N 51°55' E 004°15'4 7.6
2017-May-26 15:01N 51°54' E 004°21'2 2.2
2017-May-26 14:01N 51°53' E 004°25'0 0.0
2017-May-26 13:31N 51°53' E 004°25'0 0.0
2017-May-26 13:01N 51°53' E 004°25'0 0.3
2017-May-26 12:31N 51°53' E 004°25'0 0.1
2017-May-26 12:01N 51°53' E 004°25'2 4.0
2017-May-26 11:30N 51°54' E 004°22'2 4.3
2017-May-26 11:00N 51°53' E 004°19'0 0.0
2017-May-26 10:30N 51°53' E 004°19'0 0.6
2017-May-26 10:00N 51°54' E 004°19'1 1.5
2017-May-26 09:31N 51°53' E 004°19'1 1.7
2017-May-26 09:00N 51°54' E 004°20'2 4.1
2017-May-26 08:31N 51°54' E 004°23'2 3.8
2017-May-26 08:01N 51°54' E 004°26'0 0.1
2017-May-26 07:30N 51°54' E 004°26'1 1.9
2017-May-26 07:01N 51°54' E 004°25'1 1.1
2017-May-26 06:31N 51°53' E 004°25'1 1.5
2017-May-26 06:01N 51°53' E 004°26'0 0.3
2017-May-26 05:31N 51°53' E 004°25'0 0.0
2017-May-26 05:00N 51°53' E 004°25'0 0.0
2017-May-26 04:30N 51°53' E 004°25'0 0.0
2017-May-26 04:00N 51°53' E 004°25'0 0.2
2017-May-26 03:30N 51°53' E 004°25'0 0.0
2017-May-26 03:00N 51°53' E 004°25'0 0.0
2017-May-26 02:30N 51°53' E 004°25'0 0.0
2017-May-26 02:00N 51°53' E 004°25'0 0.0
2017-May-26 01:30N 51°53' E 004°25'0 0.0
2017-May-26 01:00N 51°53' E 004°25'0 0.0
2017-May-26 00:30N 51°53' E 004°25'0 0.0
2017-May-26 00:00N 51°53' E 004°25'0 0.0
2017-May-25 23:30N 51°53' E 004°25'0 0.0
2017-May-25 23:00N 51°53' E 004°25'0 0.0
2017-May-25 22:30N 51°53' E 004°25'0 0.3
2017-May-25 22:00N 51°53' E 004°25'1 1.2
2017-May-25 21:31N 51°53' E 004°24'2 3.4
2017-May-25 21:00N 51°54' E 004°26'3 6.4
2017-May-25 20:30N 51°54' E 004°31'5 9.4
2017-May-25 20:00N 51°52' E 004°38'4 8.1
2017-May-25 19:31N 51°48' E 004°39'5 9.4
2017-May-25 19:00N 51°44' E 004°38'26 4.2
2017-May-25 12:51N 51°21' E 004°17'0 0.7
2017-May-25 12:22N 51°21' E 004°17'2 4.0
2017-May-25 11:49N 51°19' E 004°16'0 1.4
2017-May-25 11:29N 51°18' E 004°16'0 0.0
2017-May-25 10:34N 51°18' E 004°16'0 0.0
2017-May-25 09:56N 51°18' E 004°16'0 0.0
2017-May-25 09:29N 51°18' E 004°16'0 0.0
2017-May-25 08:58N 51°18' E 004°16'0 0.0
2017-May-25 08:26N 51°18' E 004°16'0 0.1
2017-May-25 07:58N 51°18' E 004°16'2 3.0
2017-May-25 07:21N 51°20' E 004°17'0 0.3
2017-May-25 06:42N 51°20' E 004°16'0 0.4
2017-May-25 06:30N 51°20' E 004°17'1 1.5
2017-May-25 05:53N 51°21' E 004°16'0 0.0
2017-May-25 05:29N 51°21' E 004°16'0 0.0
2017-May-25 04:56N 51°21' E 004°16'0 0.0
2017-May-25 04:30N 51°21' E 004°16'0 0.0
2017-May-25 03:53N 51°21' E 004°16'1 2.0
2017-May-25 03:23N 51°20' E 004°16'3 7.5
2017-May-25 03:00N 51°17' E 004°16'0 0.0
2017-May-25 02:28N 51°17' E 004°16'0 0.0
2017-May-25 02:00N 51°17' E 004°16'0 0.0
2017-May-25 01:31N 51°17' E 004°16'0 0.1
2017-May-25 01:01N 51°17' E 004°16'1 1.2
2017-May-25 00:30N 51°18' E 004°16'0 0.0
2017-May-24 23:58N 51°18' E 004°16'0 0.0
2017-May-24 23:30N 51°18' E 004°16'0 0.0
2017-May-24 22:59N 51°18' E 004°16'0 0.0
2017-May-24 22:24N 51°18' E 004°16'0 0.0
2017-May-24 21:15N 51°18' E 004°16'1 2.5
2017-May-24 21:00N 51°17' E 004°16'1 1.1
2017-May-24 20:30N 51°17' E 004°15'1 2.4
2017-May-24 20:00N 51°18' E 004°16'3 5.6
2017-May-24 19:29N 51°21' E 004°17'0 0.0
2017-May-24 19:00N 51°21' E 004°17'0 0.0
2017-May-24 18:30N 51°21' E 004°17'0 0.0
2017-May-24 18:00N 51°21' E 004°17'0 0.1
2017-May-24 17:30N 51°21' E 004°17'3 5.9
2017-May-24 17:00N 51°18' E 004°17'0 0.4
2017-May-24 16:30N 51°18' E 004°18'0 0.0
2017-May-24 16:00N 51°18' E 004°18'0 0.0
2017-May-24 15:30N 51°18' E 004°18'2 3.7
2017-May-24 15:00N 51°17' E 004°20'0 0.5
2017-May-24 14:30N 51°16' E 004°20'0 0.0
2017-May-24 13:30N 51°16' E 004°20'1 2.3
2017-May-24 13:00N 51°17' E 004°22'0 0.2
2017-May-24 12:30N 51°17' E 004°22'2 1.2
2017-May-24 11:12N 51°18' E 004°20'1 3.6
2017-May-24 11:00N 51°17' E 004°20'1 2.4
2017-May-24 10:30N 51°16' E 004°21'0 0.1
2017-May-24 10:00N 51°16' E 004°21'0 0.0
2017-May-24 09:30N 51°16' E 004°21'1 1.3
2017-May-24 09:00N 51°16' E 004°22'2 3.1
2017-May-24 08:30N 51°16' E 004°24'0 0.2
2017-May-24 08:00N 51°16' E 004°24'1 2.4
2017-May-24 07:30N 51°16' E 004°22'2 2.4
2017-May-24 06:48N 51°17' E 004°20'0 0.9
2017-May-24 06:30N 51°17' E 004°20'1 2.6
2017-May-24 06:00N 51°18' E 004°18'2 1.1
2017-May-24 04:33N 51°19' E 004°17'0 0.0
2017-May-24 04:27N 51°19' E 004°17'0 0.0
2017-May-24 00:04N 51°19' E 004°17'0 0.0
2017-May-23 23:48N 51°19' E 004°17'0 0.0
2017-May-23 23:06N 51°19' E 004°17'0 0.0
2017-May-23 22:57N 51°19' E 004°17'2 4.6
2017-May-23 22:30N 51°21' E 004°16'1 1.7
2017-May-23 21:57N 51°20' E 004°17'3 7.0
2017-May-23 21:30N 51°17' E 004°15'0 0.2
2017-May-23 20:52N 51°17' E 004°15'0 0.2
2017-May-23 20:25N 51°17' E 004°15'0 0.2
2017-May-23 19:54N 51°17' E 004°15'2 4.6
2017-May-23 19:30N 51°19' E 004°17'1 2.5
2017-May-23 18:55N 51°20' E 004°16'1 1.6
2017-May-23 18:30N 51°21' E 004°17'0 0.0
2017-May-23 18:00N 51°21' E 004°17'1 2.5
2017-May-23 17:30N 51°20' E 004°17'1 1.7
2017-May-23 17:00N 51°19' E 004°17'0 0.0
2017-May-23 16:30N 51°19' E 004°17'0 0.0
2017-May-23 16:00N 51°19' E 004°17'0 0.0
2017-May-23 15:30N 51°19' E 004°17'0 0.0
2017-May-23 15:00N 51°19' E 004°17'0 0.0
2017-May-23 14:00N 51°19' E 004°17'1 1.6
2017-May-23 13:26N 51°20' E 004°16'1 0.9
2017-May-23 12:39N 51°20' E 004°16'0 1.0
2017-May-23 12:23N 51°21' E 004°16'22 4.0
2017-May-23 07:03N 51°42' E 004°25'7 6.9
2017-May-23 06:03N 51°43' E 004°36'0 7.4
2017-May-23 06:00N 51°43' E 004°36'4 7.0
2017-May-23 05:30N 51°46' E 004°38'3 6.1
2017-May-23 05:00N 51°48' E 004°35'3 6.3
2017-May-23 04:30N 51°50' E 004°30'4 7.4
2017-May-23 04:00N 51°51' E 004°24'3 6.8
2017-May-23 03:30N 51°52' E 004°19'3 6.2
2017-May-23 03:00N 51°53' E 004°14'3 6.5
2017-May-23 02:30N 51°55' E 004°11'3 6.9
2017-May-23 02:00N 51°56' E 004°06'2 3.7
2017-May-23 01:30N 51°56' E 004°03'0 0.0
2017-May-23 01:00N 51°56' E 004°03'0 0.0
2017-May-23 00:30N 51°56' E 004°03'0 0.0
2017-May-23 00:00N 51°56' E 004°03'0 0.0
2017-May-22 23:30N 51°56' E 004°03'0 0.0
2017-May-22 23:00N 51°56' E 004°03'0 0.0
2017-May-22 22:30N 51°56' E 004°03'1 1.8
2017-May-22 22:00N 51°57' E 004°02'0 0.0
2017-May-22 21:30N 51°57' E 004°02'0 0.0
2017-May-22 21:00N 51°57' E 004°02'0 0.5
2017-May-22 20:30N 51°56' E 004°02'0 0.0
2017-May-22 20:00N 51°56' E 004°02'0 0.0
2017-May-22 19:30N 51°56' E 004°02'0 0.0
2017-May-22 19:00N 51°56' E 004°02'0 0.0
2017-May-22 18:31N 51°56' E 004°02'0 0.0
2017-May-22 18:00N 51°56' E 004°02'0 0.0
2017-May-22 17:30N 51°56' E 004°02'0 0.0
2017-May-22 17:00N 51°56' E 004°02'2 3.7
2017-May-22 16:30N 51°57' E 004°05'2 3.6
2017-May-22 16:00N 51°58' E 004°03'0 0.0
2017-May-22 15:30N 51°58' E 004°03'1 1.7
2017-May-22 15:00N 51°58' E 004°03'0 0.2
2017-May-22 14:00N 51°58' E 004°03'1 1.6
2017-May-22 13:30N 51°57' E 004°04'1 1.7
2017-May-22 13:00N 51°57' E 004°02'0 0.0
2017-May-22 12:30N 51°57' E 004°02'0 0.1
2017-May-22 12:00N 51°57' E 004°03'3 5.8
2017-May-22 11:30N 51°56' E 004°07'3 6.9
2017-May-22 11:00N 51°54' E 004°12'2 4.3
2017-May-22 10:30N 51°53' E 004°14'0 0.0
2017-May-22 10:00N 51°53' E 004°14'0 0.2
2017-May-22 09:30N 51°53' E 004°14'1 2.1
2017-May-22 09:00N 51°52' E 004°15'3 5.3
2017-May-22 08:30N 51°53' E 004°19'3 5.9
2017-May-22 08:00N 51°53' E 004°24'0 0.8
2017-May-22 07:30N 51°53' E 004°24'1 2.1
2017-May-22 07:00N 51°54' E 004°25'1 1.8
2017-May-22 06:30N 51°53' E 004°26'0 0.0
2017-May-22 06:00N 51°53' E 004°26'0 0.2
2017-May-22 05:30N 51°53' E 004°26'1 1.0
2017-May-22 05:00N 51°54' E 004°26'3 6.6
2017-May-22 04:30N 51°54' E 004°31'5 9.2
2017-May-22 04:00N 51°52' E 004°38'4 8.1
2017-May-22 03:31N 51°49' E 004°43'5 9.8
2017-May-22 03:00N 51°49' E 004°51'5 9.9
2017-May-22 02:30N 51°49' E 004°59'7 9.9
2017-May-22 01:48N 51°49' E 005°10'310.1
2017-May-22 01:29N 51°49' E 005°16'4 8.8
2017-May-22 01:00N 51°49' E 005°22'5 9.8
2017-May-22 00:29N 51°53' E 005°26'5 9.8
2017-May-22 00:00N 51°54' E 005°34'510.0
2017-May-21 23:31N 51°54' E 005°42'5 9.9
2017-May-21 23:01N 51°52' E 005°49'4 8.0
2017-May-21 22:31N 51°52' E 005°56'3 6.8
2017-May-21 22:01N 51°53' E 006°01'5 9.8
2017-May-21 21:31N 51°51' E 006°09'510.1
2017-May-21 21:01N 51°49' E 006°16'5 9.7
2017-May-21 20:31N 51°45' E 006°21'4 7.1
2017-May-21 19:58N 51°43' E 006°26'5 9.1
2017-May-21 19:28N 51°40' E 006°32'3 6.8
2017-May-21 19:00N 51°37' E 006°35'4 7.3
2017-May-21 18:29N 51°35' E 006°39'4 8.1
2017-May-21 18:00N 51°31' E 006°42'3 6.4
2017-May-21 17:31N 51°28' E 006°43'5 9.0
2017-May-21 17:00N 51°24' E 006°45'9 6.5
2017-May-21 15:35N 51°15' E 006°46'110.3
2017-May-21 15:30N 51°14' E 006°46'3 6.2
2017-May-21 15:01N 51°11' E 006°44'17 6.9
2017-May-21 12:35N 50°58' E 006°60'1 9.8
2017-May-21 12:28N 50°57' E 006°58'13 7.2
2017-May-21 10:41N 50°45' E 007°06'104 6.7
2017-May-20 19:18N 49°14' E 008°23'101 3.6
2017-May-19 14:57N 47°39' E 007°32'0 0.4
2017-May-19 14:00N 47°39' E 007°32'0 0.3
2017-May-19 13:30N 47°39' E 007°32'4 1.3
2017-May-19 10:13N 47°35' E 007°35'0 0.0
2017-May-19 09:57N 47°35' E 007°35'0 0.0
2017-May-19 09:25N 47°35' E 007°35'0 0.0
2017-May-19 08:57N 47°35' E 007°35'0 0.0
2017-May-19 08:11N 47°35' E 007°35'0 0.0
2017-May-19 07:59N 47°35' E 007°35'2 0.1
2017-May-18 17:36N 47°34' E 007°37'0 1.1
2017-May-18 17:23N 47°34' E 007°38'0 0.4
2017-May-18 17:00N 47°34' E 007°38'0 0.0
2017-May-18 16:30N 47°34' E 007°38'0 0.0
2017-May-18 16:00N 47°34' E 007°38'0 0.0
2017-May-18 15:30N 47°34' E 007°38'0 0.0
2017-May-18 15:00N 47°34' E 007°38'1 1.3
2017-May-18 14:30N 47°33' E 007°39'1 1.0
2017-May-18 13:30N 47°32' E 007°40'0 0.0
2017-May-18 13:00N 47°32' E 007°40'0 0.0
2017-May-18 12:30N 47°32' E 007°40'0 0.0
2017-May-18 12:00N 47°32' E 007°40'0 0.2
2017-May-18 11:30N 47°33' E 007°40'0 0.0
2017-May-18 11:00N 47°33' E 007°40'0 0.3
2017-May-18 10:30N 47°33' E 007°40'1 1.6
2017-May-18 10:00N 47°33' E 007°39'1 1.3
2017-May-18 09:30N 47°34' E 007°38'2 1.5
2017-May-18 07:50N 47°35' E 007°35'1 0.1
2017-May-17 20:40N 47°36' E 007°35'0 0.0
2017-May-17 20:30N 47°36' E 007°35'0 0.0
2017-May-17 19:30N 47°36' E 007°35'  

Dump ship's entire track history